createdAt,value
2022-09-01T00:00:57.585Z,14.51
2022-09-01T00:04:10.453Z,14.43
2022-09-01T00:10:27.676Z,14.44
2022-09-01T00:13:39.524Z,14.41
2022-09-01T00:16:51.771Z,14.41
2022-09-01T00:20:03.460Z,14.46
2022-09-01T00:23:15.324Z,14.46
2022-09-01T00:26:27.616Z,14.41
2022-09-01T00:29:43.327Z,14.50
2022-09-01T00:32:54.891Z,14.56
2022-09-01T00:36:08.034Z,14.42
2022-09-01T00:39:20.369Z,14.36
2022-09-01T00:42:32.749Z,14.41
2022-09-01T00:45:44.489Z,14.42
2022-09-01T00:49:00.834Z,14.40
2022-09-01T00:52:18.558Z,14.34
2022-09-01T00:55:35.347Z,14.40
2022-09-01T00:58:47.291Z,14.27
2022-09-01T01:01:59.496Z,14.32
2022-09-01T01:05:15.215Z,14.31
2022-09-01T01:08:33.993Z,14.30
2022-09-01T01:11:47.530Z,14.24
2022-09-01T01:14:59.289Z,14.14
2022-09-01T01:18:11.183Z,14.12
2022-09-01T01:21:42.780Z,14.02
2022-09-01T01:24:55.817Z,14.01
2022-09-01T01:28:22.425Z,14.05
2022-09-01T01:31:36.524Z,14.05
2022-09-01T01:34:48.847Z,13.97
2022-09-01T01:38:01.059Z,13.99
2022-09-01T01:41:13.656Z,14.03
2022-09-01T01:44:29.633Z,14.02
2022-09-01T01:47:44.175Z,13.97
2022-09-01T01:50:59.568Z,13.96
2022-09-01T01:54:12.807Z,13.88
2022-09-01T01:57:24.313Z,13.75
2022-09-01T02:00:38.508Z,13.76
2022-09-01T02:03:52.501Z,13.70
2022-09-01T02:07:04.386Z,13.82
2022-09-01T02:10:16.713Z,13.84
2022-09-01T02:13:31.098Z,13.80
2022-09-01T02:16:43.962Z,13.82
2022-09-01T02:19:57.640Z,13.67
2022-09-01T02:23:12.445Z,13.51
2022-09-01T02:26:25.186Z,13.37
2022-09-01T02:29:40.209Z,13.29
2022-09-01T02:32:50.795Z,13.27
2022-09-01T02:36:06.433Z,13.17
2022-09-01T02:39:19.949Z,13.11
2022-09-01T02:42:32.095Z,13.12
2022-09-01T02:45:44.919Z,13.18
2022-09-01T02:48:57.577Z,13.27
2022-09-01T02:52:10.347Z,13.27
2022-09-01T02:55:22.781Z,13.23
2022-09-01T02:58:38.960Z,13.11
2022-09-01T03:01:52.577Z,13.10
2022-09-01T03:05:05.928Z,13.17
2022-09-01T03:08:19.076Z,13.31
2022-09-01T03:11:33.115Z,13.39
2022-09-01T03:14:45.016Z,13.31
2022-09-01T03:17:59.036Z,13.31
2022-09-01T03:21:13.874Z,13.39
2022-09-01T03:24:26.806Z,13.42
2022-09-01T03:27:38.344Z,13.44
2022-09-01T03:30:57.728Z,13.30
2022-09-01T03:34:12.635Z,13.36
2022-09-01T03:37:26.946Z,13.43
2022-09-01T03:40:42.754Z,13.39
2022-09-01T03:43:56.174Z,13.32
2022-09-01T03:47:09.716Z,13.30
2022-09-01T03:50:25.869Z,13.18
2022-09-01T03:53:42.052Z,13.07
2022-09-01T03:56:55.051Z,13.14
2022-09-01T04:00:11.582Z,13.22
2022-09-01T04:03:28.816Z,13.09
2022-09-01T04:06:40.148Z,13.01
2022-09-01T04:09:52.772Z,13.01
2022-09-01T04:13:05.329Z,13.09
2022-09-01T04:16:38.483Z,13.17
2022-09-01T04:19:50.397Z,13.18
2022-09-01T04:23:04.791Z,13.05
2022-09-01T04:26:20.542Z,13.04
2022-09-01T04:29:34.735Z,12.86
2022-09-01T04:32:48.177Z,12.80
2022-09-01T04:36:00.800Z,12.78
2022-09-01T04:39:13.803Z,12.82
2022-09-01T04:42:29.428Z,12.78
2022-09-01T04:45:44.364Z,12.65
2022-09-01T04:48:59.784Z,12.80
2022-09-01T04:52:15.198Z,12.84
2022-09-01T04:55:29.911Z,12.85
2022-09-01T04:58:42.569Z,12.83
2022-09-01T05:01:55.699Z,12.91
2022-09-01T05:05:10.054Z,12.96
2022-09-01T05:08:25.217Z,12.98
2022-09-01T05:11:41.375Z,13.07
2022-09-01T05:14:56.100Z,13.14
2022-09-01T05:18:13.209Z,13.16
2022-09-01T05:21:29.874Z,13.24
2022-09-01T05:24:43.688Z,13.30
2022-09-01T05:27:55.830Z,13.45
2022-09-01T05:31:08.690Z,13.46
2022-09-01T05:34:24.615Z,13.53
2022-09-01T05:37:37.522Z,13.61
2022-09-01T05:40:53.336Z,13.63
2022-09-01T05:44:07.213Z,13.68
2022-09-01T05:47:21.179Z,13.75
2022-09-01T05:50:35.471Z,13.76
2022-09-01T05:53:47.295Z,13.92
2022-09-01T05:57:23.284Z,14.20
2022-09-01T06:00:17.990Z,14.55
2022-09-01T06:03:33.091Z,15.02
2022-09-01T06:07:08.407Z,15.54
2022-09-01T06:10:06.389Z,16.06
2022-09-01T06:13:21.124Z,16.92
2022-09-01T06:16:36.109Z,17.13
2022-09-01T06:19:49.065Z,17.25
2022-09-01T06:22:59.832Z,17.74
2022-09-01T06:26:12.763Z,17.80
2022-09-01T06:29:26.757Z,18.28
2022-09-01T06:32:42.413Z,18.39
2022-09-01T06:35:55.984Z,18.89
2022-09-01T06:39:08.566Z,19.03
2022-09-01T06:51:25.124Z,20.22
2022-09-01T06:54:41.515Z,20.39
2022-09-01T07:01:46.087Z,20.70
2022-09-01T07:05:00.449Z,20.52
2022-09-01T07:08:19.223Z,20.66
2022-09-01T07:18:07.040Z,21.80
2022-09-01T07:24:34.724Z,21.72
2022-09-01T07:27:50.875Z,21.80
2022-09-01T07:48:36.015Z,23.01
2022-09-01T07:51:36.003Z,23.16
2022-09-01T07:54:48.768Z,23.31
2022-09-01T07:58:00.982Z,22.97
2022-09-01T08:01:18.857Z,23.12
2022-09-01T08:04:34.440Z,23.28
2022-09-01T08:07:54.336Z,23.27
2022-09-01T08:11:04.901Z,23.62
2022-09-01T08:14:18.203Z,23.35
2022-09-01T08:17:34.635Z,23.39
2022-09-01T08:20:47.406Z,23.40
2022-09-01T08:24:02.513Z,23.72
2022-09-01T08:27:16.387Z,24.69
2022-09-01T08:30:28.471Z,24.83
2022-09-01T08:33:41.048Z,24.15
2022-09-01T08:36:54.209Z,24.13
2022-09-01T08:40:07.635Z,24.30
2022-09-01T08:43:29.157Z,24.17
2022-09-01T08:46:46.952Z,25.07
2022-09-01T08:50:00.247Z,25.08
2022-09-01T08:53:21.035Z,24.09
2022-09-01T08:56:35.561Z,23.39
2022-09-01T08:59:47.749Z,23.01
2022-09-01T09:03:18.475Z,23.93
2022-09-01T09:06:36.708Z,24.86
2022-09-01T09:09:54.353Z,25.00
2022-09-01T09:13:16.724Z,24.98
2022-09-01T09:16:34.323Z,25.32
2022-09-01T09:19:49.091Z,25.40
2022-09-01T09:23:02.154Z,25.20
2022-09-01T09:26:22.255Z,24.93
2022-09-01T09:29:32.405Z,24.81
2022-09-01T09:33:30.864Z,25.29
2022-09-01T09:36:39.039Z,26.47
2022-09-01T09:39:52.268Z,26.26
2022-09-01T09:43:11.992Z,25.94
2022-09-01T09:46:38.421Z,26.43
2022-09-01T09:49:53.247Z,27.20
2022-09-01T09:56:28.775Z,27.19
2022-09-01T09:59:58.695Z,25.26
2022-09-01T10:03:10.199Z,25.04
2022-09-01T10:09:49.246Z,25.79
2022-09-01T10:13:03.190Z,24.25
2022-09-01T10:16:24.185Z,23.16
2022-09-01T10:19:40.452Z,23.51
2022-09-01T10:22:54.991Z,23.24
2022-09-01T10:26:12.234Z,24.46
2022-09-01T10:32:37.883Z,23.17
2022-09-01T10:35:49.170Z,24.24
2022-09-01T10:39:06.143Z,24.89
2022-09-01T10:42:24.285Z,24.10
2022-09-01T10:45:44.620Z,24.77
2022-09-01T10:49:03.232Z,25.10
2022-09-01T10:52:14.332Z,25.47
2022-09-01T10:55:32.571Z,24.73
2022-09-01T11:02:28.160Z,22.91
2022-09-01T11:05:33.469Z,22.32
2022-09-01T12:24:25.560Z,22.63
2022-09-01T13:08:34.569Z,22.10
2022-09-01T13:20:47.015Z,21.86
2022-09-01T14:32:50.373Z,20.22
2022-09-01T14:39:07.296Z,20.11
2022-09-01T15:29:44.343Z,20.96
2022-09-01T15:32:59.195Z,20.88
2022-09-01T15:36:24.819Z,20.81
2022-09-01T15:39:38.552Z,20.88
2022-09-01T15:42:51.017Z,20.79
2022-09-01T15:46:06.525Z,20.80
2022-09-01T15:49:18.601Z,20.79
2022-09-01T15:52:30.593Z,20.66
2022-09-01T15:55:47.070Z,20.65
2022-09-01T16:02:39.153Z,20.47
2022-09-01T16:05:50.808Z,20.40
2022-09-01T16:13:02.980Z,20.37
2022-09-01T16:16:26.840Z,20.34
2022-09-01T16:19:49.481Z,20.22
2022-09-01T16:22:56.128Z,20.16
2022-09-01T16:26:08.031Z,20.01
2022-09-01T16:29:45.082Z,19.95
2022-09-01T16:36:21.225Z,19.67
2022-09-01T16:39:41.608Z,19.55
2022-09-01T16:43:00.520Z,19.53
2022-09-01T16:46:32.435Z,19.47
2022-09-01T17:40:07.407Z,18.52
2022-09-01T17:51:26.139Z,18.46
2022-09-01T17:55:02.028Z,18.36
2022-09-01T18:03:02.747Z,18.24
2022-09-01T18:09:24.788Z,18.17
2022-09-01T18:12:56.031Z,18.03
2022-09-01T18:16:15.121Z,17.95
2022-09-01T18:19:46.088Z,17.91
2022-09-01T18:23:10.706Z,17.87
2022-09-01T18:27:01.277Z,17.76
2022-09-01T18:34:03.842Z,17.67
2022-09-01T18:37:48.140Z,17.63
2022-09-01T18:44:26.738Z,17.48
2022-09-01T18:51:05.173Z,17.30
2022-09-01T18:54:22.861Z,17.18
2022-09-01T18:57:41.907Z,17.10
2022-09-01T19:01:30.518Z,16.95
2022-09-01T19:04:46.358Z,16.90
2022-09-01T19:19:54.446Z,16.23
2022-09-01T19:23:44.289Z,16.20
2022-09-01T19:27:01.746Z,16.20
2022-09-01T19:30:15.812Z,16.21
2022-09-01T19:33:37.630Z,16.20
2022-09-01T19:36:51.393Z,16.14
2022-09-01T19:40:03.994Z,15.89
2022-09-01T19:43:21.393Z,15.86
2022-09-01T19:46:41.484Z,15.84
2022-09-01T19:49:59.912Z,15.67
2022-09-01T19:53:19.389Z,15.59
2022-09-01T19:56:39.819Z,15.54
2022-09-01T20:00:05.967Z,15.50
2022-09-01T20:03:23.918Z,15.56
2022-09-01T20:06:41.439Z,15.46
2022-09-01T20:09:59.626Z,15.36
2022-09-01T20:13:30.618Z,15.39
2022-09-01T20:16:48.098Z,15.38
2022-09-01T20:20:08.230Z,15.28
2022-09-01T20:23:27.613Z,15.20
2022-09-01T20:26:46.982Z,15.08
2022-09-01T20:30:05.039Z,15.07
2022-09-01T20:33:24.543Z,14.98
2022-09-01T20:36:43.633Z,14.89
2022-09-01T20:40:05.792Z,14.90
2022-09-01T20:43:24.710Z,14.89
2022-09-01T20:46:37.158Z,14.83
2022-09-01T20:49:49.718Z,14.75
2022-09-01T20:53:14.859Z,14.71
2022-09-01T20:56:37.523Z,14.66
2022-09-01T20:59:54.914Z,14.61
2022-09-01T21:03:14.594Z,14.53
2022-09-01T21:06:35.422Z,14.44
2022-09-01T21:10:00.289Z,14.39
2022-09-01T21:13:24.782Z,14.35
2022-09-01T21:16:43.072Z,14.28
2022-09-01T21:20:04.474Z,14.19
2022-09-01T21:23:19.234Z,14.07
2022-09-01T21:26:31.870Z,14.04
2022-09-01T21:29:54.440Z,14.01
2022-09-01T21:33:06.315Z,13.99
2022-09-01T21:36:18.518Z,14.06
2022-09-01T21:39:30.200Z,14.03
2022-09-01T21:42:46.376Z,13.92
2022-09-01T21:45:58.401Z,13.93
2022-09-01T21:49:10.595Z,13.86
2022-09-01T21:52:22.463Z,13.88
2022-09-01T21:55:34.715Z,13.86
2022-09-01T21:58:49.868Z,13.75
2022-09-01T22:02:01.467Z,13.75
2022-09-01T22:05:14.996Z,13.70
2022-09-01T22:08:27.715Z,13.59
2022-09-01T22:11:40.995Z,13.57
2022-09-01T22:14:52.523Z,13.49
2022-09-01T22:18:04.980Z,13.46
2022-09-01T22:21:18.627Z,13.42
2022-09-01T22:24:30.325Z,13.44
2022-09-01T22:27:42.215Z,13.38
2022-09-01T22:30:55.719Z,13.25
2022-09-01T22:34:08.398Z,13.26
2022-09-01T22:37:20.021Z,13.24
2022-09-01T22:40:31.821Z,13.23
2022-09-01T22:43:44.359Z,13.20
2022-09-01T22:46:57.158Z,13.16
2022-09-01T22:50:11.629Z,13.11
2022-09-01T22:53:26.560Z,13.05
2022-09-01T22:56:41.792Z,13.05
2022-09-01T22:59:53.309Z,12.97
2022-09-01T23:03:04.967Z,12.92
2022-09-01T23:06:27.795Z,12.88
2022-09-01T23:09:33.627Z,12.85
2022-09-01T23:12:45.860Z,12.85
2022-09-01T23:15:57.784Z,12.78
2022-09-01T23:19:10.576Z,12.71
2022-09-01T23:22:22.553Z,12.66
2022-09-01T23:25:34.736Z,12.66
2022-09-01T23:28:49.008Z,12.62
2022-09-01T23:32:01.268Z,12.58
2022-09-01T23:35:16.516Z,12.46
2022-09-01T23:38:30.720Z,12.43
2022-09-01T23:41:44.352Z,12.41
2022-09-01T23:44:56.858Z,12.40
2022-09-01T23:48:10.003Z,12.41
2022-09-01T23:51:23.681Z,12.36
2022-09-01T23:54:36.401Z,12.31
2022-09-01T23:57:49.385Z,12.27
